CSCL Dalian — VRBH4 — position and weather

sailwx.info

Track history (hours):
 
Tides and Currents Weather Stations Pressure Air Temp Water Temp Dewpoint Dewpoint Depression Visibility Wind Speed Wind Dir Waves Ship Positions

CSCL Dalian

Last reported at 2014-Aug-22 21:08 UTC. Time now 2014-Aug-23 03:33 UTC.
Position N 39°13' W 000°01'.

Length 259.8 m; ; draft 11 m.

Type: Cargo ship. MMSI: 477014600.

Date/timePositionNaut miles runAvg speedWind from/ knotsBaromVisibWave heightAir tempDewpointWater temp
2014-Aug-22 21:08N 39°13' W 000°01'915.7
2014-Aug-22 20:33N 39°06' E 000°06'1818.3
2014-Aug-22 19:33N 38°52' E 000°20'1615.6
2014-Aug-22 18:32N 38°36' E 000°21'1818.6
2014-Aug-22 17:33N 38°20' E 000°09'1717.5
2014-Aug-22 16:33N 38°06' W 000°03'1818.0
2014-Aug-22 15:33N 37°51' W 000°16'1818.0
2014-Aug-22 14:33N 37°36' W 000°28'1817.8
2014-Aug-22 13:33N 37°23' W 000°44'1818.0
2014-Aug-22 12:33N 37°12' W 001°01'1817.7
2014-Aug-22 11:33N 36°60' W 001°18'3918.1
2014-Aug-22 09:24N 36°34' W 001°54'1517.5
2014-Aug-22 08:33N 36°24' W 002°07'1817.6
2014-Aug-22 07:32N 36°20' W 002°29'1818.3
2014-Aug-22 06:32N 36°17' W 002°51'11919.7
2014-Aug-22 00:31N 35°59' W 005°17'45 1.7
2014-Aug-20 21:14N 35°44' W 006°10'0 0.6
2014-Aug-20 20:33N 35°44' W 006°09'1 0.7
2014-Aug-20 19:33N 35°45' W 006°09'2 0.6
2014-Aug-20 15:26N 35°47' W 006°09'1 1.5
2014-Aug-20 14:33N 35°48' W 006°10'4711.3
2014-Aug-20 10:27N 36°05' W 007°04'13810.7
2014-Aug-19 21:33N 37°04' W 009°40'1111.4
2014-Aug-19 20:33N 37°14' W 009°46'1211.5
2014-Aug-19 19:30N 37°26' W 009°46'7211.8
2014-Aug-19 13:23N 38°36' W 009°27'6 6.7
2014-Aug-19 12:33N 38°39' W 009°20'9 8.5
2014-Aug-19 11:32N 38°42' W 009°10'0 0.0
2014-Aug-19 10:31N 38°42' W 009°10'0 0.0
2014-Aug-19 09:31N 38°42' W 009°10'0 0.0
2014-Aug-19 08:31N 38°42' W 009°10'0 0.0
2014-Aug-19 07:32N 38°42' W 009°10'0 0.0
2014-Aug-19 06:31N 38°42' W 009°10'1 0.9
2014-Aug-19 05:33N 38°41' W 009°11'1111.4
2014-Aug-19 04:33N 38°37' W 009°24'6 6.2
2014-Aug-19 03:33N 38°39' W 009°32'67115.9
2014-Aug-17 09:14N 36°47' W 023°28'1116.0
2014-Aug-17 08:34N 36°44' W 023°41'1515.4
2014-Aug-17 07:33N 36°41' W 023°60'1615.7
2014-Aug-17 06:34N 36°37' W 024°19'1615.5
2014-Aug-17 05:33N 36°34' W 024°38'1615.5
2014-Aug-17 04:33N 36°31' W 024°57'1615.7
2014-Aug-17 03:33N 36°27' W 025°15'1615.6
2014-Aug-17 02:33N 36°23' W 025°34'1615.9
2014-Aug-17 01:33N 36°19' W 025°53'1515.2
2014-Aug-17 00:33N 36°15' W 026°11'1615.4
2014-Aug-16 23:32N 36°11' W 026°30'1515.1
2014-Aug-16 22:33N 36°07' W 026°48'3115.1
2014-Aug-16 20:29N 35°59' W 027°25'  
Track history (hours):
 
Tides and Currents Weather Stations Pressure Air Temp Water Temp Dewpoint Dewpoint Depression Visibility Wind Speed Wind Dir Waves Ship Positions

CSCL Dalian

Last reported at 2014-Aug-22 21:08 UTC. Time now 2014-Aug-23 03:33 UTC.
Position N 39°13' W 000°01'.

Length 259.8 m; ; draft 11 m.

Type: Cargo ship. MMSI: 477014600.

Date/timePositionNaut miles runAvg speedWind from/ knotsBaromVisibWave heightAir tempDewpointWater temp
2014-Aug-22 21:08N 39°13' W 000°01'915.7
2014-Aug-22 20:33N 39°06' E 000°06'1818.3
2014-Aug-22 19:33N 38°52' E 000°20'1615.6
2014-Aug-22 18:32N 38°36' E 000°21'1818.6
2014-Aug-22 17:33N 38°20' E 000°09'1717.5
2014-Aug-22 16:33N 38°06' W 000°03'1818.0
2014-Aug-22 15:33N 37°51' W 000°16'1818.0
2014-Aug-22 14:33N 37°36' W 000°28'1817.8
2014-Aug-22 13:33N 37°23' W 000°44'1818.0
2014-Aug-22 12:33N 37°12' W 001°01'1817.7
2014-Aug-22 11:33N 36°60' W 001°18'3918.1
2014-Aug-22 09:24N 36°34' W 001°54'1517.5
2014-Aug-22 08:33N 36°24' W 002°07'1817.6
2014-Aug-22 07:32N 36°20' W 002°29'1818.3
2014-Aug-22 06:32N 36°17' W 002°51'11919.7
2014-Aug-22 00:31N 35°59' W 005°17'45 1.7
2014-Aug-20 21:14N 35°44' W 006°10'0 0.6
2014-Aug-20 20:33N 35°44' W 006°09'1 0.7
2014-Aug-20 19:33N 35°45' W 006°09'2 0.6
2014-Aug-20 15:26N 35°47' W 006°09'1 1.5
2014-Aug-20 14:33N 35°48' W 006°10'4711.3
2014-Aug-20 10:27N 36°05' W 007°04'13810.7
2014-Aug-19 21:33N 37°04' W 009°40'1111.4
2014-Aug-19 20:33N 37°14' W 009°46'1211.5
2014-Aug-19 19:30N 37°26' W 009°46'7211.8
2014-Aug-19 13:23N 38°36' W 009°27'6 6.7
2014-Aug-19 12:33N 38°39' W 009°20'9 8.5
2014-Aug-19 11:32N 38°42' W 009°10'0 0.0
2014-Aug-19 10:31N 38°42' W 009°10'0 0.0
2014-Aug-19 09:31N 38°42' W 009°10'0 0.0
2014-Aug-19 08:31N 38°42' W 009°10'0 0.0
2014-Aug-19 07:32N 38°42' W 009°10'0 0.0
2014-Aug-19 06:31N 38°42' W 009°10'1 0.9
2014-Aug-19 05:33N 38°41' W 009°11'1111.4
2014-Aug-19 04:33N 38°37' W 009°24'6 6.2
2014-Aug-19 03:33N 38°39' W 009°32'67115.9
2014-Aug-17 09:14N 36°47' W 023°28'1116.0
2014-Aug-17 08:34N 36°44' W 023°41'1515.4
2014-Aug-17 07:33N 36°41' W 023°60'1615.7
2014-Aug-17 06:34N 36°37' W 024°19'1615.5
2014-Aug-17 05:33N 36°34' W 024°38'1615.5
2014-Aug-17 04:33N 36°31' W 024°57'1615.7
2014-Aug-17 03:33N 36°27' W 025°15'1615.6
2014-Aug-17 02:33N 36°23' W 025°34'1615.9
2014-Aug-17 01:33N 36°19' W 025°53'1515.2
2014-Aug-17 00:33N 36°15' W 026°11'1615.4
2014-Aug-16 23:32N 36°11' W 026°30'1515.1
2014-Aug-16 22:33N 36°07' W 026°48'3115.1
2014-Aug-16 20:29N 35°59' W 027°25'  

Dump ship's entire track history